Akademik Fedorov — UCKZ — position and weather

sailwx.info

Track history (hours):
 
Tides and Currents Weather Stations Pressure Air Temp Water Temp Dewpoint Dewpoint Depression Visibility Wind Speed Wind Dir Waves Ship Positions

Oceanographic research ship Akademik Fedorov (Russia)

Detailed information on ship capabilities available from ARCUS's ALIAS (Arctic Logistics Information and Support) project.

Last reported at 2016-May-28 23:28 UTC. Time now 2016-May-29 01:58 UTC.
Position N 55°37' E 015°39'.

Length 141 m; beam 17 m.

Type: Ship. MMSI: 273412710.

Date/timePositionNaut miles runAvg speedWind from/ knotsBaromVisibWave heightAir tempDewpointWater temp
2016-May-28 23:28N 55°37' E 015°39'910.3
2016-May-28 22:34N 55°35' E 015°23'1110.6
2016-May-28 21:34N 55°32' E 015°05'1212.2
2016-May-28 20:33N 55°27' E 014°45'1514.7
2016-May-28 19:33N 55°16' E 014°28'1514.6
2016-May-28 18:33N 55°05' E 014°11'1414.2
2016-May-28 17:33N 54°58' E 013°50'1814.4
2016-May-28 16:20N 54°52' E 013°21'2514.2
2016-May-28 14:33N 54°43' E 012°40'1514.2
2016-May-28 13:31N 54°35' E 012°19'1212.9
2016-May-28 12:33N 54°24' E 012°07'1413.7
2016-May-28 11:33N 54°26' E 011°44'1413.8
2016-May-28 10:33N 54°31' E 011°22'1414.0
2016-May-28 09:33N 54°38' E 011°01'1312.7
2016-May-28 08:33N 54°50' E 010°52'1413.9
2016-May-28 07:34N 55°02' E 011°01'1413.6
2016-May-28 06:33N 55°16' E 011°04'1414.2
2016-May-28 05:33N 55°29' E 010°54'2812.6
2016-May-28 03:21N 55°57' E 010°59'1214.8
2016-May-28 02:32N 56°07' E 011°09'3514.9
2016-May-28 00:12N 56°37' E 011°43'1015.0
2016-May-27 23:34N 56°45' E 011°52'1515.4
2016-May-27 22:33N 56°59' E 011°43'1515.3
2016-May-27 21:34N 57°14' E 011°33'1515.1
2016-May-27 20:33N 57°28' E 011°23'1514.8
2016-May-27 19:34N 57°39' E 011°04'1514.6
2016-May-27 18:34N 57°52' E 010°53'1313.3
2016-May-27 17:34N 57°59' E 010°32'15313.7
2016-May-27 06:24N 56°07' E 007°22'1415.0
2016-May-27 05:28N 55°53' E 007°14'1414.9
2016-May-27 04:33N 55°40' E 007°07'1514.6
2016-May-27 03:33N 55°26' E 007°04'1514.7
2016-May-27 02:33N 55°11' E 007°04'1514.7
2016-May-27 01:33N 54°56' E 007°05'1414.3
2016-May-27 00:33N 54°42' E 007°09'1414.0
2016-May-26 23:33N 54°28' E 007°14'1514.5
2016-May-26 22:33N 54°16' E 007°26'1413.6
2016-May-26 21:33N 54°04' E 007°37'1211.8
2016-May-26 20:33N 53°53' E 007°46'1414.1
2016-May-26 19:33N 53°48' E 008°08'1717.1
2016-May-26 18:33N 53°36' E 008°30'4 3.6
2016-May-26 17:31N 53°33' E 008°34'0 0.4
2016-May-26 16:31N 53°34' E 008°33'0 0.0
2016-May-26 15:31N 53°34' E 008°33'0 0.0
2016-May-26 14:31N 53°34' E 008°33'0 0.0
2016-May-26 13:25N 53°34' E 008°33'0 0.0
2016-May-26 12:31N 53°34' E 008°33'0 0.0
2016-May-26 11:31N 53°34' E 008°33'0 0.0
2016-May-26 10:31N 53°34' E 008°33'0 0.0
2016-May-26 09:31N 53°34' E 008°33'0 0.0
2016-May-26 08:31N 53°34' E 008°33'0 0.0
2016-May-26 07:31N 53°34' E 008°33'0 0.0
2016-May-26 06:31N 53°34' E 008°33'0 0.0
2016-May-26 05:31N 53°34' E 008°33'0 0.0
2016-May-26 04:31N 53°34' E 008°33'0 0.0
2016-May-26 03:31N 53°34' E 008°33'0 0.0
2016-May-26 02:31N 53°34' E 008°33'0 0.0
2016-May-26 01:31N 53°34' E 008°33'0 0.0
2016-May-26 00:31N 53°34' E 008°33'0 0.0
2016-May-25 23:31N 53°34' E 008°33'0 0.0
2016-May-25 22:31N 53°34' E 008°33'0 0.0
2016-May-25 21:31N 53°34' E 008°33'0 0.0
2016-May-25 20:31N 53°34' E 008°33'0 0.0
2016-May-25 19:31N 53°34' E 008°33'0 0.0
2016-May-25 18:31N 53°34' E 008°33'0 0.0
2016-May-25 17:31N 53°34' E 008°33'0 0.0
2016-May-25 16:31N 53°34' E 008°33'0 0.0
2016-May-25 15:31N 53°34' E 008°33'0 0.0
2016-May-25 14:28N 53°34' E 008°33'0 0.0
2016-May-25 13:28N 53°34' E 008°33'0 0.0
2016-May-25 12:31N 53°34' E 008°33'0 0.0
2016-May-25 11:31N 53°34' E 008°33'0 0.0
2016-May-25 10:31N 53°34' E 008°33'0 0.0
2016-May-25 09:31N 53°34' E 008°33'0 0.0
2016-May-25 08:31N 53°34' E 008°33'0 0.0
2016-May-25 07:31N 53°34' E 008°33'0 0.0
2016-May-25 06:31N 53°34' E 008°33'0 0.0
2016-May-25 05:31N 53°34' E 008°33'0 0.0
2016-May-25 04:31N 53°34' E 008°33'0 0.0
2016-May-25 03:31N 53°34' E 008°33'0 0.0
2016-May-25 02:31N 53°34' E 008°33'0 0.0
2016-May-25 01:31N 53°34' E 008°33'0 0.0
2016-May-25 00:31N 53°34' E 008°33'0 0.0
2016-May-24 23:31N 53°34' E 008°33'0 0.0
2016-May-24 22:31N 53°34' E 008°33'0 0.0
2016-May-24 21:31N 53°34' E 008°33'0 0.0
2016-May-24 20:31N 53°34' E 008°33'0 0.0
2016-May-24 19:31N 53°34' E 008°33'0 0.0
2016-May-24 18:31N 53°34' E 008°33'0 0.0
2016-May-24 17:31N 53°34' E 008°33'0 0.0
2016-May-24 16:31N 53°34' E 008°33'0 0.0
2016-May-24 15:31N 53°34' E 008°33'0 0.0
2016-May-24 14:31N 53°34' E 008°33'0 0.0
2016-May-24 13:31N 53°34' E 008°33'0 0.0
2016-May-24 12:31N 53°34' E 008°33'0 0.0
2016-May-24 11:31N 53°34' E 008°33'0 0.0
2016-May-24 10:31N 53°34' E 008°33'0 0.0
2016-May-24 09:31N 53°34' E 008°33'0 0.0
2016-May-24 08:31N 53°34' E 008°33'0 0.0
2016-May-24 07:28N 53°34' E 008°33'0 0.0
2016-May-24 06:31N 53°34' E 008°33'0 0.0
2016-May-24 05:31N 53°34' E 008°33'0 0.0
2016-May-24 04:31N 53°34' E 008°33'0 0.0
2016-May-24 03:31N 53°34' E 008°33'0 0.0
2016-May-24 02:31N 53°34' E 008°33'0 0.0
2016-May-24 01:31N 53°34' E 008°33'0 0.0
2016-May-24 00:31N 53°34' E 008°33'0 0.0
2016-May-23 23:31N 53°34' E 008°33'0 0.0
2016-May-23 22:31N 53°34' E 008°33'0 0.0
2016-May-23 21:31N 53°34' E 008°33'0 0.0
2016-May-23 20:31N 53°34' E 008°33'0 0.0
2016-May-23 19:31N 53°34' E 008°33'0 0.0
2016-May-23 18:31N 53°34' E 008°33'0 0.0
2016-May-23 17:31N 53°34' E 008°33'0 0.0
2016-May-23 16:28N 53°34' E 008°33'0 0.0
2016-May-23 15:31N 53°34' E 008°33'0 0.0
2016-May-23 14:31N 53°34' E 008°33'0 0.0
2016-May-23 13:31N 53°34' E 008°33'0 0.0
2016-May-23 12:31N 53°34' E 008°33'0 0.0
2016-May-23 11:31N 53°34' E 008°33'0 0.0
2016-May-23 10:31N 53°34' E 008°33'0 0.0
2016-May-23 09:31N 53°34' E 008°33'0 0.0
2016-May-23 08:31N 53°34' E 008°33'0 0.4
2016-May-23 07:34N 53°34' E 008°33'3 2.7
2016-May-23 06:33N 53°36' E 008°30'1211.9
2016-May-23 05:33N 53°44' E 008°15'1212.2
2016-May-23 04:33N 53°51' E 007°58'1111.2
2016-May-23 03:33N 53°56' E 007°41'1212.4
2016-May-23 02:33N 54°06' E 007°30'1111.0
2016-May-23 01:33N 54°09' E 007°12'1110.7
2016-May-23 00:32N 54°09' E 006°53'1010.0
2016-May-22 23:32N 54°08' E 006°36'1010.2
2016-May-22 22:31N 54°08' E 006°18'1110.5
2016-May-22 21:31N 54°07' E 006°00'1010.5
2016-May-22 20:33N 54°05' E 005°43'1110.5
2016-May-22 19:33N 54°04' E 005°26'1110.6
2016-May-22 18:33N 54°02' E 005°08'1212.0
2016-May-22 17:33N 54°00' E 004°47'165 7.4
2016-May-21 19:21N 51°39' E 002°25'1113.5
2016-May-21 18:30N 51°30' E 002°13'1313.9
2016-May-21 17:34N 51°20' E 001°59'1414.4
2016-May-21 16:33N 51°10' E 001°44'1414.1
2016-May-21 15:33N 50°58' E 001°30'5614.0
2016-May-21 11:33N 50°23' E 000°21'1515.3
2016-May-21 10:33N 50°19' W 000°02'1916.3
2016-May-21 09:25N 50°14' W 000°30'1517.3
2016-May-21 08:32N 50°10' W 000°53'2018.0
2016-May-21 07:27N 50°05' W 001°22'7016.5
2016-May-21 03:11N 49°44' W 003°06'914.8
2016-May-21 02:33N 49°39' W 003°19'8614.2
2016-May-20 20:28N 48°57' W 005°14'1313.9
2016-May-20 19:33N 48°49' W 005°29'2314.5
2016-May-20 18:00N 48°30' W 005°48'9515.8 200 / 211014.9 2.2 1.513.612.012.7
2016-May-20 12:00N 47°06' W 006°54'9215.4 220 / 161018.7 2.2 1.014.012.614.0
2016-May-20 06:00N 45°48' W 008°06'9115.1 230 / 171020.7 2.2 1.014.113.615.0
2016-May-20 00:00N 44°36' W 009°24'8914.9 240 / 141023.5 5.4 14.512.915.1
2016-May-19 18:00N 43°18' W 010°24'8614.3 280 / 121024.610.8 0.515.213.115.5
2016-May-19 12:00N 42°00' W 011°12'   320 / 121026.410.8 0.515.214.715.7
Track history (hours):
 
Tides and Currents Weather Stations Pressure Air Temp Water Temp Dewpoint Dewpoint Depression Visibility Wind Speed Wind Dir Waves Ship Positions

Oceanographic research ship Akademik Fedorov (Russia)

Detailed information on ship capabilities available from ARCUS's ALIAS (Arctic Logistics Information and Support) project.

Last reported at 2016-May-28 23:28 UTC. Time now 2016-May-29 01:58 UTC.
Position N 55°37' E 015°39'.

Length 141 m; beam 17 m.

Type: Ship. MMSI: 273412710.

Date/timePositionNaut miles runAvg speedWind from/ knotsBaromVisibWave heightAir tempDewpointWater temp
2016-May-28 23:28N 55°37' E 015°39'910.3
2016-May-28 22:34N 55°35' E 015°23'1110.6
2016-May-28 21:34N 55°32' E 015°05'1212.2
2016-May-28 20:33N 55°27' E 014°45'1514.7
2016-May-28 19:33N 55°16' E 014°28'1514.6
2016-May-28 18:33N 55°05' E 014°11'1414.2
2016-May-28 17:33N 54°58' E 013°50'1814.4
2016-May-28 16:20N 54°52' E 013°21'2514.2
2016-May-28 14:33N 54°43' E 012°40'1514.2
2016-May-28 13:31N 54°35' E 012°19'1212.9
2016-May-28 12:33N 54°24' E 012°07'1413.7
2016-May-28 11:33N 54°26' E 011°44'1413.8
2016-May-28 10:33N 54°31' E 011°22'1414.0
2016-May-28 09:33N 54°38' E 011°01'1312.7
2016-May-28 08:33N 54°50' E 010°52'1413.9
2016-May-28 07:34N 55°02' E 011°01'1413.6
2016-May-28 06:33N 55°16' E 011°04'1414.2
2016-May-28 05:33N 55°29' E 010°54'2812.6
2016-May-28 03:21N 55°57' E 010°59'1214.8
2016-May-28 02:32N 56°07' E 011°09'3514.9
2016-May-28 00:12N 56°37' E 011°43'1015.0
2016-May-27 23:34N 56°45' E 011°52'1515.4
2016-May-27 22:33N 56°59' E 011°43'1515.3
2016-May-27 21:34N 57°14' E 011°33'1515.1
2016-May-27 20:33N 57°28' E 011°23'1514.8
2016-May-27 19:34N 57°39' E 011°04'1514.6
2016-May-27 18:34N 57°52' E 010°53'1313.3
2016-May-27 17:34N 57°59' E 010°32'15313.7
2016-May-27 06:24N 56°07' E 007°22'1415.0
2016-May-27 05:28N 55°53' E 007°14'1414.9
2016-May-27 04:33N 55°40' E 007°07'1514.6
2016-May-27 03:33N 55°26' E 007°04'1514.7
2016-May-27 02:33N 55°11' E 007°04'1514.7
2016-May-27 01:33N 54°56' E 007°05'1414.3
2016-May-27 00:33N 54°42' E 007°09'1414.0
2016-May-26 23:33N 54°28' E 007°14'1514.5
2016-May-26 22:33N 54°16' E 007°26'1413.6
2016-May-26 21:33N 54°04' E 007°37'1211.8
2016-May-26 20:33N 53°53' E 007°46'1414.1
2016-May-26 19:33N 53°48' E 008°08'1717.1
2016-May-26 18:33N 53°36' E 008°30'4 3.6
2016-May-26 17:31N 53°33' E 008°34'0 0.4
2016-May-26 16:31N 53°34' E 008°33'0 0.0
2016-May-26 15:31N 53°34' E 008°33'0 0.0
2016-May-26 14:31N 53°34' E 008°33'0 0.0
2016-May-26 13:25N 53°34' E 008°33'0 0.0
2016-May-26 12:31N 53°34' E 008°33'0 0.0
2016-May-26 11:31N 53°34' E 008°33'0 0.0
2016-May-26 10:31N 53°34' E 008°33'0 0.0
2016-May-26 09:31N 53°34' E 008°33'0 0.0
2016-May-26 08:31N 53°34' E 008°33'0 0.0
2016-May-26 07:31N 53°34' E 008°33'0 0.0
2016-May-26 06:31N 53°34' E 008°33'0 0.0
2016-May-26 05:31N 53°34' E 008°33'0 0.0
2016-May-26 04:31N 53°34' E 008°33'0 0.0
2016-May-26 03:31N 53°34' E 008°33'0 0.0
2016-May-26 02:31N 53°34' E 008°33'0 0.0
2016-May-26 01:31N 53°34' E 008°33'0 0.0
2016-May-26 00:31N 53°34' E 008°33'0 0.0
2016-May-25 23:31N 53°34' E 008°33'0 0.0
2016-May-25 22:31N 53°34' E 008°33'0 0.0
2016-May-25 21:31N 53°34' E 008°33'0 0.0
2016-May-25 20:31N 53°34' E 008°33'0 0.0
2016-May-25 19:31N 53°34' E 008°33'0 0.0
2016-May-25 18:31N 53°34' E 008°33'0 0.0
2016-May-25 17:31N 53°34' E 008°33'0 0.0
2016-May-25 16:31N 53°34' E 008°33'0 0.0
2016-May-25 15:31N 53°34' E 008°33'0 0.0
2016-May-25 14:28N 53°34' E 008°33'0 0.0
2016-May-25 13:28N 53°34' E 008°33'0 0.0
2016-May-25 12:31N 53°34' E 008°33'0 0.0
2016-May-25 11:31N 53°34' E 008°33'0 0.0
2016-May-25 10:31N 53°34' E 008°33'0 0.0
2016-May-25 09:31N 53°34' E 008°33'0 0.0
2016-May-25 08:31N 53°34' E 008°33'0 0.0
2016-May-25 07:31N 53°34' E 008°33'0 0.0
2016-May-25 06:31N 53°34' E 008°33'0 0.0
2016-May-25 05:31N 53°34' E 008°33'0 0.0
2016-May-25 04:31N 53°34' E 008°33'0 0.0
2016-May-25 03:31N 53°34' E 008°33'0 0.0
2016-May-25 02:31N 53°34' E 008°33'0 0.0
2016-May-25 01:31N 53°34' E 008°33'0 0.0
2016-May-25 00:31N 53°34' E 008°33'0 0.0
2016-May-24 23:31N 53°34' E 008°33'0 0.0
2016-May-24 22:31N 53°34' E 008°33'0 0.0
2016-May-24 21:31N 53°34' E 008°33'0 0.0
2016-May-24 20:31N 53°34' E 008°33'0 0.0
2016-May-24 19:31N 53°34' E 008°33'0 0.0
2016-May-24 18:31N 53°34' E 008°33'0 0.0
2016-May-24 17:31N 53°34' E 008°33'0 0.0
2016-May-24 16:31N 53°34' E 008°33'0 0.0
2016-May-24 15:31N 53°34' E 008°33'0 0.0
2016-May-24 14:31N 53°34' E 008°33'0 0.0
2016-May-24 13:31N 53°34' E 008°33'0 0.0
2016-May-24 12:31N 53°34' E 008°33'0 0.0
2016-May-24 11:31N 53°34' E 008°33'0 0.0
2016-May-24 10:31N 53°34' E 008°33'0 0.0
2016-May-24 09:31N 53°34' E 008°33'0 0.0
2016-May-24 08:31N 53°34' E 008°33'0 0.0
2016-May-24 07:28N 53°34' E 008°33'0 0.0
2016-May-24 06:31N 53°34' E 008°33'0 0.0
2016-May-24 05:31N 53°34' E 008°33'0 0.0
2016-May-24 04:31N 53°34' E 008°33'0 0.0
2016-May-24 03:31N 53°34' E 008°33'0 0.0
2016-May-24 02:31N 53°34' E 008°33'0 0.0
2016-May-24 01:31N 53°34' E 008°33'0 0.0
2016-May-24 00:31N 53°34' E 008°33'0 0.0
2016-May-23 23:31N 53°34' E 008°33'0 0.0
2016-May-23 22:31N 53°34' E 008°33'0 0.0
2016-May-23 21:31N 53°34' E 008°33'0 0.0
2016-May-23 20:31N 53°34' E 008°33'0 0.0
2016-May-23 19:31N 53°34' E 008°33'0 0.0
2016-May-23 18:31N 53°34' E 008°33'0 0.0
2016-May-23 17:31N 53°34' E 008°33'0 0.0
2016-May-23 16:28N 53°34' E 008°33'0 0.0
2016-May-23 15:31N 53°34' E 008°33'0 0.0
2016-May-23 14:31N 53°34' E 008°33'0 0.0
2016-May-23 13:31N 53°34' E 008°33'0 0.0
2016-May-23 12:31N 53°34' E 008°33'0 0.0
2016-May-23 11:31N 53°34' E 008°33'0 0.0
2016-May-23 10:31N 53°34' E 008°33'0 0.0
2016-May-23 09:31N 53°34' E 008°33'0 0.0
2016-May-23 08:31N 53°34' E 008°33'0 0.4
2016-May-23 07:34N 53°34' E 008°33'3 2.7
2016-May-23 06:33N 53°36' E 008°30'1211.9
2016-May-23 05:33N 53°44' E 008°15'1212.2
2016-May-23 04:33N 53°51' E 007°58'1111.2
2016-May-23 03:33N 53°56' E 007°41'1212.4
2016-May-23 02:33N 54°06' E 007°30'1111.0
2016-May-23 01:33N 54°09' E 007°12'1110.7
2016-May-23 00:32N 54°09' E 006°53'1010.0
2016-May-22 23:32N 54°08' E 006°36'1010.2
2016-May-22 22:31N 54°08' E 006°18'1110.5
2016-May-22 21:31N 54°07' E 006°00'1010.5
2016-May-22 20:33N 54°05' E 005°43'1110.5
2016-May-22 19:33N 54°04' E 005°26'1110.6
2016-May-22 18:33N 54°02' E 005°08'1212.0
2016-May-22 17:33N 54°00' E 004°47'165 7.4
2016-May-21 19:21N 51°39' E 002°25'1113.5
2016-May-21 18:30N 51°30' E 002°13'1313.9
2016-May-21 17:34N 51°20' E 001°59'1414.4
2016-May-21 16:33N 51°10' E 001°44'1414.1
2016-May-21 15:33N 50°58' E 001°30'5614.0
2016-May-21 11:33N 50°23' E 000°21'1515.3
2016-May-21 10:33N 50°19' W 000°02'1916.3
2016-May-21 09:25N 50°14' W 000°30'1517.3
2016-May-21 08:32N 50°10' W 000°53'2018.0
2016-May-21 07:27N 50°05' W 001°22'7016.5
2016-May-21 03:11N 49°44' W 003°06'914.8
2016-May-21 02:33N 49°39' W 003°19'8614.2
2016-May-20 20:28N 48°57' W 005°14'1313.9
2016-May-20 19:33N 48°49' W 005°29'2314.5
2016-May-20 18:00N 48°30' W 005°48'9515.8 200 / 211014.9 2.2 1.513.612.012.7
2016-May-20 12:00N 47°06' W 006°54'9215.4 220 / 161018.7 2.2 1.014.012.614.0
2016-May-20 06:00N 45°48' W 008°06'9115.1 230 / 171020.7 2.2 1.014.113.615.0
2016-May-20 00:00N 44°36' W 009°24'8914.9 240 / 141023.5 5.4 14.512.915.1
2016-May-19 18:00N 43°18' W 010°24'8614.3 280 / 121024.610.8 0.515.213.115.5
2016-May-19 12:00N 42°00' W 011°12'   320 / 121026.410.8 0.515.214.715.7

Dump ship's entire track history